createdAt,value
2018-12-02T00:00:23.227Z,17.70
2018-12-02T00:01:23.192Z,17.70
2018-12-02T00:02:23.149Z,17.70
2018-12-02T00:03:23.101Z,17.00
2018-12-02T00:04:23.071Z,17.80
2018-12-02T00:05:23.087Z,17.80
2018-12-02T00:06:22.968Z,17.10
2018-12-02T00:07:22.922Z,17.70
2018-12-02T00:08:22.888Z,16.90
2018-12-02T00:09:22.860Z,17.10
2018-12-02T00:10:22.824Z,18.20
2018-12-02T00:11:22.753Z,17.80
2018-12-02T00:12:22.748Z,16.90
2018-12-02T00:13:22.690Z,15.90
2018-12-02T00:14:22.631Z,16.00
2018-12-02T00:15:22.586Z,16.70
2018-12-02T00:16:22.552Z,16.70
2018-12-02T00:17:22.507Z,16.20
2018-12-02T00:18:22.471Z,16.20
2018-12-02T00:19:22.433Z,16.20
2018-12-02T00:20:22.389Z,17.30
2018-12-02T00:21:22.349Z,16.40
2018-12-02T00:22:22.304Z,16.30
2018-12-02T00:23:22.258Z,16.40
2018-12-02T00:24:22.208Z,16.20
2018-12-02T00:25:22.188Z,15.10
2018-12-02T00:26:22.143Z,15.60
2018-12-02T00:27:22.092Z,15.90
2018-12-02T00:28:22.053Z,16.30
2018-12-02T00:29:22.011Z,15.10
2018-12-02T00:30:22.012Z,14.50
2018-12-02T00:31:21.933Z,14.90
2018-12-02T00:32:21.883Z,15.80
2018-12-02T00:33:21.861Z,15.70
2018-12-02T00:34:21.801Z,14.40
2018-12-02T00:35:21.780Z,15.80
2018-12-02T00:36:21.745Z,16.10
2018-12-02T00:37:21.685Z,15.80
2018-12-02T00:38:21.645Z,14.40
2018-12-02T00:39:21.602Z,15.60
2018-12-02T00:40:21.555Z,14.50
2018-12-02T00:41:21.503Z,15.30
2018-12-02T00:42:21.464Z,15.70
2018-12-02T00:43:21.429Z,14.60
2018-12-02T00:44:21.385Z,14.30
2018-12-02T00:45:21.359Z,14.10
2018-12-02T00:46:21.321Z,14.30
2018-12-02T00:47:21.258Z,14.50
2018-12-02T00:48:21.236Z,14.80
2018-12-02T00:49:21.177Z,14.00
2018-12-02T00:50:21.141Z,13.90
2018-12-02T00:51:21.096Z,14.40
2018-12-02T00:52:21.076Z,13.50
2018-12-02T00:53:21.018Z,15.30
2018-12-02T00:54:20.964Z,13.90
2018-12-02T00:55:20.943Z,14.70
2018-12-02T00:56:20.885Z,14.60
2018-12-02T00:57:20.855Z,15.00
2018-12-02T00:58:20.804Z,13.50
2018-12-02T00:59:20.762Z,13.80
2018-12-02T01:00:20.723Z,14.50
2018-12-02T01:01:20.677Z,13.60
2018-12-02T01:02:20.640Z,14.20
2018-12-02T01:03:20.600Z,13.40
2018-12-02T01:04:20.553Z,13.10
2018-12-02T01:05:20.544Z,13.10
2018-12-02T01:06:20.457Z,13.50
2018-12-02T01:07:20.423Z,13.50
2018-12-02T01:08:20.383Z,12.10
2018-12-02T01:09:20.378Z,12.90
2018-12-02T01:10:20.307Z,13.50
2018-12-02T01:11:20.269Z,12.90
2018-12-02T01:12:20.218Z,12.80
2018-12-02T01:13:20.180Z,12.70
2018-12-02T01:14:20.134Z,12.40
2018-12-02T01:15:20.097Z,11.60
2018-12-02T01:16:20.062Z,12.10
2018-12-02T01:17:20.010Z,12.40
2018-12-02T01:18:19.977Z,11.20
2018-12-02T01:19:19.931Z,11.20
2018-12-02T01:20:19.881Z,11.50
2018-12-02T01:21:19.874Z,11.40
2018-12-02T01:22:19.821Z,11.10
2018-12-02T01:23:19.765Z,10.70
2018-12-02T01:24:19.766Z,10.60
2018-12-02T01:25:19.668Z,10.60
2018-12-02T01:26:19.654Z,10.60
2018-12-02T01:27:19.597Z,11.90
2018-12-02T01:28:19.581Z,10.80
2018-12-02T01:29:19.529Z,11.00
2018-12-02T01:30:19.475Z,10.70
2018-12-02T01:31:19.437Z,11.50
2018-12-02T01:32:19.422Z,10.60
2018-12-02T01:33:19.352Z,10.80
2018-12-02T01:34:19.298Z,11.00
2018-12-02T01:35:19.262Z,11.40
2018-12-02T01:36:19.228Z,10.70
2018-12-02T01:37:19.175Z,11.20
2018-12-02T01:38:19.138Z,10.60
2018-12-02T01:39:19.129Z,10.60
2018-12-02T01:40:19.045Z,10.90
2018-12-02T01:41:19.036Z,10.80
2018-12-02T01:42:18.968Z,10.10
2018-12-02T01:43:18.941Z,10.80
2018-12-02T01:44:18.896Z,10.50
2018-12-02T01:45:18.833Z,11.10
2018-12-02T01:46:18.806Z,10.70
2018-12-02T01:47:18.781Z,11.20
2018-12-02T01:48:18.700Z,11.00
2018-12-02T01:49:18.714Z,11.40
2018-12-02T01:50:18.640Z,12.00
2018-12-02T01:51:18.591Z,10.70
2018-12-02T01:52:18.555Z,11.50
2018-12-02T01:53:18.523Z,11.10
2018-12-02T01:54:18.468Z,11.40
2018-12-02T01:55:18.441Z,11.50
2018-12-02T01:56:18.383Z,11.50
2018-12-02T01:57:18.335Z,12.20
2018-12-02T01:58:18.293Z,11.60
2018-12-02T01:59:18.262Z,11.70
2018-12-02T02:00:18.219Z,12.20
2018-12-02T02:01:18.174Z,12.40
2018-12-02T02:02:18.130Z,12.40
2018-12-02T02:03:18.090Z,12.90
2018-12-02T02:04:18.044Z,12.00
2018-12-02T02:05:18.019Z,12.70
2018-12-02T02:06:17.962Z,12.80
2018-12-02T02:07:17.943Z,12.10
2018-12-02T02:08:17.886Z,12.60
2018-12-02T02:09:17.843Z,13.20
2018-12-02T02:10:17.800Z,12.60
2018-12-02T02:11:17.759Z,11.90
2018-12-02T02:12:17.720Z,12.30
2018-12-02T02:13:17.693Z,13.30
2018-12-02T02:14:17.624Z,12.50
2018-12-02T02:15:17.748Z,12.70
2018-12-02T02:16:17.560Z,12.30
2018-12-02T02:17:17.515Z,12.30
2018-12-02T02:18:17.471Z,13.00
2018-12-02T02:19:17.416Z,11.90
2018-12-02T02:20:17.382Z,12.30
2018-12-02T02:21:17.361Z,12.60
2018-12-02T02:22:17.296Z,12.70
2018-12-02T02:23:17.254Z,13.00
2018-12-02T02:24:17.210Z,12.50
2018-12-02T02:25:17.195Z,12.60
2018-12-02T02:26:17.114Z,12.70
2018-12-02T02:27:17.100Z,13.00
2018-12-02T02:28:17.048Z,12.20
2018-12-02T02:29:17.000Z,12.70
2018-12-02T02:30:16.955Z,12.80
2018-12-02T02:31:16.915Z,12.80
2018-12-02T02:32:16.876Z,12.70
2018-12-02T02:33:16.833Z,12.40
2018-12-02T02:34:16.844Z,12.30
2018-12-02T02:35:16.751Z,13.20
2018-12-02T02:36:16.702Z,12.90
2018-12-02T02:37:16.658Z,13.30
2018-12-02T02:38:16.619Z,13.80
2018-12-02T02:39:16.591Z,13.40
2018-12-02T02:40:16.532Z,12.70
2018-12-02T02:41:16.506Z,13.10
2018-12-02T02:42:16.462Z,13.30
2018-12-02T02:43:16.413Z,13.40
2018-12-02T02:44:16.393Z,13.10
2018-12-02T02:45:16.418Z,14.10
2018-12-02T02:46:16.300Z,13.00
2018-12-02T02:47:16.250Z,13.70
2018-12-02T02:48:16.227Z,13.60
2018-12-02T02:49:16.176Z,13.00
2018-12-02T02:50:16.115Z,13.20
2018-12-02T02:51:16.068Z,13.00
2018-12-02T02:52:16.027Z,13.20
2018-12-02T02:53:16.001Z,13.20
2018-12-02T02:54:15.952Z,13.80
2018-12-02T02:55:15.911Z,13.70
2018-12-02T02:56:15.870Z,13.70
2018-12-02T02:57:15.821Z,13.60
2018-12-02T02:58:15.777Z,13.50
2018-12-02T02:59:15.754Z,14.00
2018-12-02T03:00:15.704Z,14.80
2018-12-02T03:01:15.673Z,13.60
2018-12-02T03:02:15.601Z,13.90
2018-12-02T03:03:15.561Z,13.80
2018-12-02T03:04:15.538Z,14.00
2018-12-02T03:05:15.485Z,13.60
2018-12-02T03:06:15.461Z,14.20
2018-12-02T03:07:15.390Z,14.50
2018-12-02T03:08:15.355Z,13.80
2018-12-02T03:09:15.326Z,14.20
2018-12-02T03:10:15.272Z,14.30
2018-12-02T03:11:15.250Z,14.40
2018-12-02T03:12:15.199Z,14.40
2018-12-02T03:13:15.154Z,14.50
2018-12-02T03:14:15.107Z,14.30
2018-12-02T03:15:15.096Z,15.10
2018-12-02T03:16:15.023Z,14.40
2018-12-02T03:17:14.982Z,14.70
2018-12-02T03:18:14.929Z,14.80
2018-12-02T03:19:14.887Z,14.30
2018-12-02T03:20:14.853Z,14.90
2018-12-02T03:21:14.803Z,14.50
2018-12-02T03:22:14.784Z,14.90
2018-12-02T03:23:14.719Z,13.10
2018-12-02T03:24:14.675Z,13.30
2018-12-02T03:25:14.630Z,13.90
2018-12-02T03:26:14.618Z,14.90
2018-12-02T03:27:14.541Z,15.30
2018-12-02T03:28:14.525Z,15.80
2018-12-02T03:29:14.484Z,14.90
2018-12-02T03:30:14.431Z,13.90
2018-12-02T03:31:14.373Z,13.90
2018-12-02T03:32:14.358Z,14.20
2018-12-02T03:33:14.299Z,13.50
2018-12-02T03:34:14.266Z,15.30
2018-12-02T03:35:14.234Z,16.00
2018-12-02T03:36:14.190Z,14.90
2018-12-02T03:37:14.131Z,15.50
2018-12-02T03:38:14.100Z,16.50
2018-12-02T03:39:14.039Z,16.70
2018-12-02T03:40:14.023Z,15.70
2018-12-02T03:41:13.966Z,15.60
2018-12-02T03:42:13.922Z,15.50
2018-12-02T03:43:13.870Z,16.70
2018-12-02T03:44:13.830Z,16.20
2018-12-02T03:45:13.808Z,15.50
2018-12-02T03:46:13.749Z,16.20
2018-12-02T03:47:13.707Z,15.80
2018-12-02T03:48:13.665Z,15.90
2018-12-02T03:49:13.648Z,15.30
2018-12-02T03:50:17.426Z,15.90
2018-12-02T03:51:13.550Z,15.20
2018-12-02T03:52:13.503Z,16.10
2018-12-02T03:53:13.472Z,15.00
2018-12-02T03:54:13.427Z,14.90
2018-12-02T03:55:13.397Z,14.80
2018-12-02T03:56:13.333Z,14.70
2018-12-02T03:57:13.336Z,15.30
2018-12-02T03:58:13.269Z,14.30
2018-12-02T03:59:13.199Z,14.10
2018-12-02T04:00:13.164Z,14.10
2018-12-02T04:01:13.124Z,14.80
2018-12-02T04:02:13.074Z,14.70
2018-12-02T04:03:13.030Z,13.90
2018-12-02T04:04:12.994Z,14.60
2018-12-02T04:05:12.958Z,13.90
2018-12-02T04:06:12.904Z,14.80
2018-12-02T04:07:12.876Z,14.50
2018-12-02T04:08:12.822Z,13.90
2018-12-02T04:09:12.770Z,13.70
2018-12-02T04:10:12.734Z,14.00
2018-12-02T04:11:12.689Z,14.00
2018-12-02T04:12:12.647Z,14.60
2018-12-02T04:13:12.607Z,14.40
2018-12-02T04:14:12.567Z,13.80
2018-12-02T04:15:12.552Z,13.20
2018-12-02T04:16:12.490Z,13.90
2018-12-02T04:17:12.454Z,12.80
2018-12-02T04:18:12.397Z,13.80
2018-12-02T04:19:12.374Z,13.20
2018-12-02T04:20:12.320Z,13.00
2018-12-02T04:21:12.268Z,12.50
2018-12-02T04:22:12.232Z,12.70
2018-12-02T04:23:12.197Z,12.40
2018-12-02T04:24:12.150Z,12.60
2018-12-02T04:25:12.114Z,12.40
2018-12-02T04:26:12.064Z,12.50
2018-12-02T04:27:12.017Z,12.40
2018-12-02T04:28:11.978Z,13.20
2018-12-02T04:29:11.948Z,12.50
2018-12-02T04:30:11.899Z,13.30
2018-12-02T04:31:11.859Z,13.00
2018-12-02T04:32:11.807Z,12.80
2018-12-02T04:33:11.787Z,13.10
2018-12-02T04:34:11.728Z,12.90
2018-12-02T04:35:11.696Z,13.00
2018-12-02T04:36:11.644Z,13.20
2018-12-02T04:37:11.608Z,13.20
2018-12-02T04:38:11.565Z,13.20
2018-12-02T04:39:11.517Z,12.70
2018-12-02T04:40:11.480Z,13.10
2018-12-02T04:41:11.480Z,13.20
2018-12-02T04:42:11.398Z,13.10
2018-12-02T04:43:11.347Z,13.50
2018-12-02T04:44:11.300Z,12.60
2018-12-02T04:45:11.291Z,13.00
2018-12-02T04:46:11.238Z,12.80
2018-12-02T04:47:11.176Z,12.60
2018-12-02T04:48:11.148Z,12.80
2018-12-02T04:49:11.102Z,12.80
2018-12-02T04:50:11.057Z,12.80
2018-12-02T04:51:11.010Z,12.60
2018-12-02T04:52:10.975Z,12.10
2018-12-02T04:53:10.932Z,12.20
2018-12-02T04:54:10.902Z,12.10
2018-12-02T04:55:10.875Z,12.30
2018-12-02T04:56:10.799Z,11.70
2018-12-02T04:57:10.786Z,11.80
2018-12-02T04:58:10.737Z,11.70
2018-12-02T04:59:10.682Z,12.20
2018-12-02T05:00:10.678Z,12.50
2018-12-02T05:01:10.611Z,12.10
2018-12-02T05:02:10.567Z,11.30
2018-12-02T05:03:10.517Z,11.80
2018-12-02T05:04:10.479Z,12.00
2018-12-02T05:05:10.437Z,11.40
2018-12-02T05:06:10.382Z,12.50
2018-12-02T05:07:10.373Z,11.30
2018-12-02T05:08:10.302Z,11.30
2018-12-02T05:09:10.278Z,10.30
2018-12-02T05:10:10.209Z,11.30
2018-12-02T05:11:10.197Z,11.50
2018-12-02T05:12:10.144Z,11.70
2018-12-02T05:13:10.093Z,11.70
2018-12-02T05:14:10.047Z,12.20
2018-12-02T05:15:10.019Z,11.30
2018-12-02T05:16:09.970Z,11.10
2018-12-02T05:17:09.936Z,11.70
2018-12-02T05:18:09.886Z,11.90
2018-12-02T05:19:09.844Z,12.20
2018-12-02T05:20:09.820Z,11.60
2018-12-02T05:21:09.764Z,10.60
2018-12-02T05:22:09.750Z,10.60
2018-12-02T05:23:09.690Z,11.20
2018-12-02T05:24:09.634Z,10.60
2018-12-02T05:25:09.591Z,10.60
2018-12-02T05:26:09.558Z,10.60
2018-12-02T05:27:09.500Z,11.10
2018-12-02T05:28:09.481Z,10.40
2018-12-02T05:29:09.421Z,10.90
2018-12-02T05:30:09.392Z,10.90
2018-12-02T05:31:09.345Z,10.40
2018-12-02T05:32:09.320Z,11.00
2018-12-02T05:33:09.266Z,10.70
2018-12-02T05:34:09.231Z,10.10
2018-12-02T05:35:09.197Z,10.70
2018-12-02T05:36:09.141Z,10.40
2018-12-02T05:37:09.098Z,9.80
2018-12-02T05:38:09.103Z,10.10
2018-12-02T05:39:09.036Z,10.20
2018-12-02T05:40:08.970Z,10.40
2018-12-02T05:41:08.929Z,10.30
2018-12-02T05:42:08.893Z,10.00
2018-12-02T05:43:08.853Z,9.90
2018-12-02T05:44:08.804Z,9.90
2018-12-02T05:45:08.753Z,9.40
2018-12-02T05:46:08.718Z,10.50
2018-12-02T05:47:08.672Z,9.70
2018-12-02T05:48:08.633Z,9.70
2018-12-02T05:49:08.600Z,9.50
2018-12-02T05:50:08.546Z,9.60
2018-12-02T05:51:08.548Z,9.50
2018-12-02T05:52:08.471Z,9.70
2018-12-02T05:53:08.445Z,9.80
2018-12-02T05:54:08.376Z,9.50
2018-12-02T05:55:08.347Z,9.30
2018-12-02T05:56:08.315Z,9.20
2018-12-02T05:57:08.274Z,9.00
2018-12-02T05:58:08.225Z,9.40
2018-12-02T05:59:08.181Z,9.10
2018-12-02T06:00:08.136Z,8.80
2018-12-02T06:01:08.091Z,9.40
2018-12-02T06:02:08.047Z,9.60
2018-12-02T06:03:08.035Z,9.90
2018-12-02T06:04:07.977Z,9.50
2018-12-02T06:05:07.930Z,9.00
2018-12-02T06:06:07.878Z,8.70
2018-12-02T06:07:07.834Z,9.00
2018-12-02T06:08:07.816Z,9.20
2018-12-02T06:09:07.828Z,9.00
2018-12-02T06:10:07.738Z,8.40
2018-12-02T06:11:07.680Z,8.80
2018-12-02T06:12:07.645Z,8.30
2018-12-02T06:13:07.608Z,8.20
2018-12-02T06:14:07.553Z,8.60
2018-12-02T06:15:07.520Z,8.50
2018-12-02T06:16:07.459Z,8.00
2018-12-02T06:17:07.434Z,7.80
2018-12-02T06:18:07.378Z,8.10
2018-12-02T06:19:07.341Z,8.30
2018-12-02T06:20:07.300Z,7.50
2018-12-02T06:21:07.267Z,6.90
2018-12-02T06:22:07.215Z,7.40
2018-12-02T06:23:07.189Z,7.70
2018-12-02T06:24:07.135Z,8.00
2018-12-02T06:25:07.097Z,7.70
2018-12-02T06:26:08.260Z,7.20
2018-12-02T06:27:07.026Z,7.30
2018-12-02T06:28:06.969Z,6.90
2018-12-02T06:29:06.991Z,6.70
2018-12-02T06:30:06.883Z,7.30
2018-12-02T06:31:06.855Z,7.10
2018-12-02T06:32:06.827Z,7.30
2018-12-02T06:33:06.766Z,7.40
2018-12-02T06:34:06.802Z,6.60
2018-12-02T06:35:06.697Z,6.40
2018-12-02T06:36:06.657Z,6.30
2018-12-02T06:37:06.597Z,7.00
2018-12-02T06:38:06.549Z,6.70
2018-12-02T06:39:06.512Z,6.40
2018-12-02T06:40:06.471Z,5.90
2018-12-02T06:41:06.435Z,5.90
2018-12-02T06:42:06.376Z,7.20
2018-12-02T06:43:06.396Z,11.40
2018-12-02T06:44:06.309Z,10.30
2018-12-02T06:45:06.301Z,7.80
2018-12-02T06:46:06.231Z,5.90
2018-12-02T06:47:06.188Z,6.40
2018-12-02T06:48:06.143Z,5.70
2018-12-02T06:49:06.112Z,6.20
2018-12-02T06:50:06.067Z,5.80
2018-12-02T06:51:06.021Z,5.60
2018-12-02T06:52:05.995Z,5.60
2018-12-02T06:53:05.950Z,5.70
2018-12-02T06:54:05.910Z,5.40
2018-12-02T06:55:05.838Z,4.60
2018-12-02T06:56:05.820Z,5.00
2018-12-02T06:57:05.775Z,4.80
2018-12-02T06:58:05.740Z,4.90
2018-12-02T06:59:05.688Z,7.50
2018-12-02T07:00:05.687Z,5.90
2018-12-02T07:01:05.596Z,5.10
2018-12-02T07:02:05.592Z,5.10
2018-12-02T07:03:05.540Z,4.90
2018-12-02T07:04:05.486Z,4.30
2018-12-02T07:05:05.459Z,4.30
2018-12-02T07:06:05.407Z,4.40
2018-12-02T07:07:05.360Z,4.10
2018-12-02T07:08:05.320Z,4.10
2018-12-02T07:09:05.269Z,4.10
2018-12-02T07:10:05.235Z,4.40
2018-12-02T07:11:05.180Z,4.50
2018-12-02T07:12:05.162Z,4.10
2018-12-02T07:13:05.114Z,4.20
2018-12-02T07:14:05.068Z,3.90
2018-12-02T07:15:05.033Z,3.40
2018-12-02T07:16:04.988Z,3.70
2018-12-02T07:17:04.961Z,4.00
2018-12-02T07:18:04.904Z,3.40
2018-12-02T07:19:04.857Z,2.90
2018-12-02T07:20:04.808Z,3.30
2018-12-02T07:21:04.789Z,3.20
2018-12-02T07:22:04.731Z,3.10
2018-12-02T07:23:04.696Z,2.60
2018-12-02T07:24:04.645Z,2.60
2018-12-02T07:25:04.654Z,2.70
2018-12-02T07:26:04.568Z,2.50
2018-12-02T07:27:04.518Z,2.00
2018-12-02T07:28:04.493Z,2.20
2018-12-02T07:29:04.443Z,2.20
2018-12-02T07:30:04.414Z,2.50
2018-12-02T07:31:04.353Z,2.00
2018-12-02T07:32:04.319Z,2.20
2018-12-02T07:33:04.287Z,1.80
2018-12-02T07:34:04.238Z,2.00
2018-12-02T07:35:04.207Z,2.10
2018-12-02T07:36:04.150Z,2.30
2018-12-02T07:37:04.129Z,2.00
2018-12-02T07:38:04.074Z,2.10
2018-12-02T07:39:04.032Z,2.20
2018-12-02T07:40:04.012Z,1.90
2018-12-02T07:41:03.965Z,1.90
2018-12-02T07:42:03.921Z,2.00
2018-12-02T07:43:03.893Z,1.60
2018-12-02T07:44:03.841Z,1.80
2018-12-02T07:45:03.776Z,1.80
2018-12-02T07:46:03.774Z,1.60
2018-12-02T07:47:03.697Z,1.60
2018-12-02T07:48:03.659Z,1.80
2018-12-02T07:49:03.618Z,1.70
2018-12-02T07:50:03.582Z,1.80
2018-12-02T07:51:03.527Z,1.60
2018-12-02T07:52:03.490Z,1.60
2018-12-02T07:53:03.455Z,1.70
2018-12-02T07:54:03.399Z,1.60
2018-12-02T07:55:03.379Z,1.50
2018-12-02T07:56:03.337Z,1.90
2018-12-02T07:57:03.298Z,1.70
2018-12-02T07:58:03.269Z,1.40
2018-12-02T07:59:03.200Z,1.20
2018-12-02T08:00:03.195Z,1.50
2018-12-02T08:01:03.133Z,1.30
2018-12-02T08:02:03.089Z,1.60
2018-12-02T08:03:03.036Z,1.20
2018-12-02T08:04:02.993Z,1.50
2018-12-02T08:05:02.988Z,1.10
2018-12-02T08:06:02.912Z,1.20
2018-12-02T08:07:02.895Z,1.20
2018-12-02T08:08:02.839Z,1.30
2018-12-02T08:09:02.820Z,1.30
2018-12-02T08:10:02.773Z,1.00
2018-12-02T08:11:02.713Z,1.30
2018-12-02T08:12:02.675Z,1.00
2018-12-02T08:13:02.656Z,1.10
2018-12-02T08:14:02.603Z,1.20
2018-12-02T08:15:02.554Z,2.50
2018-12-02T08:16:02.511Z,4.10
2018-12-02T08:17:02.461Z,1.40
2018-12-02T08:18:02.436Z,1.30
2018-12-02T08:19:02.389Z,1.20
2018-12-02T08:20:02.346Z,1.30
2018-12-02T08:21:02.321Z,1.70
2018-12-02T08:22:02.287Z,1.10
2018-12-02T08:23:02.243Z,1.30
2018-12-02T08:24:02.185Z,1.10
2018-12-02T08:25:02.167Z,1.20
2018-12-02T08:26:02.128Z,1.30
2018-12-02T08:27:02.073Z,1.40
2018-12-02T08:28:02.030Z,1.10
2018-12-02T08:29:02.009Z,1.10
2018-12-02T08:30:01.946Z,1.10
2018-12-02T08:31:01.893Z,1.30
2018-12-02T08:32:01.909Z,1.70
2018-12-02T08:33:01.850Z,1.20
2018-12-02T08:34:01.780Z,1.60
2018-12-02T08:35:01.724Z,1.40
2018-12-02T08:36:01.690Z,1.20
2018-12-02T08:37:01.660Z,1.20
2018-12-02T08:38:01.605Z,1.40
2018-12-02T08:39:01.579Z,1.40
2018-12-02T08:40:01.535Z,1.40
2018-12-02T08:41:01.497Z,1.40
2018-12-02T08:42:01.484Z,1.50
2018-12-02T08:43:01.389Z,1.60
2018-12-02T08:44:01.354Z,1.20
2018-12-02T08:45:01.318Z,1.90
2018-12-02T08:46:01.275Z,1.50
2018-12-02T08:47:01.233Z,1.60
2018-12-02T08:48:01.232Z,1.90
2018-12-02T08:49:01.151Z,1.50
2018-12-02T08:50:01.133Z,1.50
2018-12-02T08:51:01.118Z,1.60
2018-12-02T08:52:01.031Z,1.60
2018-12-02T08:53:00.984Z,1.90
2018-12-02T08:54:00.954Z,1.70
2018-12-02T08:55:00.913Z,2.00
2018-12-02T08:56:00.866Z,2.10
2018-12-02T08:57:00.828Z,2.10
2018-12-02T08:58:00.792Z,2.10
2018-12-02T08:59:00.764Z,2.10
2018-12-02T09:00:00.696Z,2.20
2018-12-02T09:01:00.688Z,2.10
2018-12-02T09:02:00.614Z,2.20
2018-12-02T09:03:00.582Z,2.30
2018-12-02T09:04:00.520Z,2.30
2018-12-02T09:05:00.494Z,2.50
2018-12-02T09:06:00.481Z,2.70
2018-12-02T09:07:01.064Z,2.50
2018-12-02T09:08:00.388Z,2.50
2018-12-02T09:09:00.333Z,2.80
2018-12-02T09:10:00.302Z,2.40
2018-12-02T09:11:00.288Z,2.60
2018-12-02T09:12:00.227Z,2.70
2018-12-02T09:13:00.188Z,3.00
2018-12-02T09:14:00.146Z,2.70
2018-12-02T09:15:00.073Z,2.50
2018-12-02T09:16:00.021Z,2.90
2018-12-02T09:17:00.814Z,2.80
2018-12-02T09:17:59.973Z,2.90
2018-12-02T09:18:59.911Z,2.70
2018-12-02T09:19:59.869Z,3.00
2018-12-02T09:20:59.836Z,2.70
2018-12-02T09:21:59.788Z,2.90
2018-12-02T09:22:59.763Z,2.80
2018-12-02T09:23:59.713Z,2.70
2018-12-02T09:24:59.659Z,2.80
2018-12-02T09:25:59.628Z,2.70
2018-12-02T09:26:59.604Z,3.10
2018-12-02T09:27:59.533Z,2.90
2018-12-02T09:28:59.582Z,4.20
2018-12-02T09:29:59.460Z,3.40
2018-12-02T09:30:59.418Z,2.60
2018-12-02T09:31:59.435Z,3.60
2018-12-02T09:32:59.337Z,3.00
2018-12-02T09:33:59.316Z,3.10
2018-12-02T09:34:59.270Z,2.90
2018-12-02T09:35:59.208Z,2.80
2018-12-02T09:36:59.185Z,3.20
2018-12-02T09:37:59.151Z,3.10
2018-12-02T09:38:59.086Z,3.30
2018-12-02T09:39:59.035Z,2.90
2018-12-02T09:40:59.031Z,3.20
2018-12-02T09:41:58.968Z,2.80
2018-12-02T09:42:58.931Z,2.90
2018-12-02T09:43:58.884Z,3.00
2018-12-02T09:44:58.845Z,3.10
2018-12-02T09:45:58.809Z,3.00
2018-12-02T09:46:58.754Z,2.50
2018-12-02T09:47:58.710Z,2.40
2018-12-02T09:48:58.673Z,2.30
2018-12-02T09:49:58.619Z,2.60
2018-12-02T09:50:58.599Z,2.60
2018-12-02T09:51:58.531Z,2.30
2018-12-02T09:52:58.512Z,2.40
2018-12-02T09:53:58.456Z,2.40
2018-12-02T09:54:58.441Z,2.60
2018-12-02T09:55:58.384Z,2.50
2018-12-02T09:56:58.330Z,2.00
2018-12-02T09:57:58.299Z,2.50
2018-12-02T09:58:58.259Z,2.20
2018-12-02T09:59:58.210Z,2.00
2018-12-02T10:00:58.157Z,2.10
2018-12-02T10:01:58.121Z,2.00
2018-12-02T10:02:58.073Z,2.00
2018-12-02T10:03:58.060Z,2.10
2018-12-02T10:04:58.018Z,2.20
2018-12-02T10:05:57.995Z,2.30
2018-12-02T10:06:57.920Z,1.80
2018-12-02T10:07:57.890Z,2.00
2018-12-02T10:08:57.861Z,1.80
2018-12-02T10:09:58.266Z,2.60
2018-12-02T10:10:57.743Z,1.60
2018-12-02T10:11:57.719Z,2.00
2018-12-02T10:12:57.671Z,1.80
2018-12-02T10:13:57.623Z,1.50
2018-12-02T10:14:57.600Z,1.80
2018-12-02T10:15:57.570Z,2.80
2018-12-02T10:16:57.500Z,1.80
2018-12-02T10:17:57.474Z,1.70
2018-12-02T10:18:57.427Z,1.70
2018-12-02T10:19:57.373Z,1.80
2018-12-02T10:20:57.332Z,2.00
2018-12-02T10:21:57.299Z,1.70
2018-12-02T10:22:57.256Z,1.60
2018-12-02T10:23:57.236Z,1.80
2018-12-02T10:24:57.183Z,1.70
2018-12-02T10:25:57.154Z,1.50
2018-12-02T10:26:57.092Z,1.70
2018-12-02T10:27:57.076Z,1.70
2018-12-02T10:28:57.047Z,1.80
2018-12-02T10:29:57.025Z,1.80
2018-12-02T10:30:56.993Z,1.60
2018-12-02T10:31:57.017Z,2.00
2018-12-02T10:32:56.861Z,1.70
2018-12-02T10:33:56.825Z,1.70
2018-12-02T10:34:56.768Z,1.70
2018-12-02T10:35:56.726Z,1.70
2018-12-02T10:36:56.728Z,4.30
2018-12-02T10:37:56.665Z,3.90
2018-12-02T10:38:56.641Z,3.30
2018-12-02T10:39:56.582Z,1.90
2018-12-02T10:40:56.642Z,1.80
2018-12-02T10:41:56.563Z,1.90
2018-12-02T10:42:56.511Z,1.90
2018-12-02T10:43:56.429Z,1.40
2018-12-02T10:44:56.369Z,1.40
2018-12-02T10:45:56.339Z,1.60
2018-12-02T10:46:56.297Z,5.20
2018-12-02T10:47:56.260Z,10.20
2018-12-02T10:48:56.229Z,2.30
2018-12-02T10:49:56.192Z,1.90
2018-12-02T10:50:56.140Z,1.70
2018-12-02T10:51:56.090Z,4.60
2018-12-02T10:52:56.038Z,7.10
2018-12-02T10:53:56.010Z,2.90
2018-12-02T10:54:55.970Z,3.60
2018-12-02T10:55:55.922Z,5.60
2018-12-02T10:56:55.873Z,1.90
2018-12-02T10:57:55.852Z,7.30
2018-12-02T10:58:55.800Z,6.00
2018-12-02T10:59:55.836Z,3.90
2018-12-02T11:00:55.788Z,5.20
2018-12-02T11:01:55.703Z,2.10
2018-12-02T11:02:55.639Z,1.50
2018-12-02T11:03:55.601Z,2.70
2018-12-02T11:04:55.573Z,2.10
2018-12-02T11:05:55.526Z,1.60
2018-12-02T11:06:55.469Z,1.60
2018-12-02T11:07:55.440Z,1.30
2018-12-02T11:08:55.396Z,1.50
2018-12-02T11:09:55.366Z,1.50
2018-12-02T11:10:55.306Z,1.30
2018-12-02T11:11:55.323Z,1.40
2018-12-02T11:12:55.254Z,1.50
2018-12-02T11:13:55.209Z,1.50
2018-12-02T11:14:55.160Z,1.60
2018-12-02T11:15:55.140Z,1.60
2018-12-02T11:16:55.084Z,1.50
2018-12-02T11:17:55.052Z,1.70
2018-12-02T11:18:55.016Z,1.60
2018-12-02T11:19:54.978Z,1.70
2018-12-02T11:20:54.944Z,1.70
2018-12-02T11:21:54.892Z,1.50
2018-12-02T11:22:54.967Z,2.00
2018-12-02T11:23:54.791Z,3.60
2018-12-02T11:24:54.779Z,1.90
2018-12-02T11:25:54.720Z,1.60
2018-12-02T11:26:54.713Z,1.70
2018-12-02T11:27:54.641Z,2.00
2018-12-02T11:28:54.611Z,2.60
2018-12-02T11:29:54.587Z,2.50
2018-12-02T11:30:54.510Z,1.90
2018-12-02T11:31:54.492Z,1.70
2018-12-02T11:32:54.462Z,1.40
2018-12-02T11:33:54.450Z,1.50
2018-12-02T11:34:54.362Z,1.30
2018-12-02T11:35:54.319Z,1.40
2018-12-02T11:36:54.282Z,1.30
2018-12-02T11:37:54.242Z,1.40
2018-12-02T11:38:54.210Z,1.50
2018-12-02T11:39:54.158Z,1.40
2018-12-02T11:40:54.136Z,1.50
2018-12-02T11:41:54.096Z,1.50
2018-12-02T11:42:54.033Z,1.50
2018-12-02T11:43:54.006Z,1.50
2018-12-02T11:44:53.957Z,1.90
2018-12-02T11:45:53.915Z,1.50
2018-12-02T11:46:53.875Z,1.20
2018-12-02T11:47:53.850Z,1.30
2018-12-02T11:48:53.799Z,1.20
2018-12-02T11:49:53.760Z,1.30
2018-12-02T11:50:53.721Z,1.30
2018-12-02T11:51:53.678Z,1.30
2018-12-02T11:52:53.670Z,1.20
2018-12-02T11:53:53.600Z,3.30
2018-12-02T11:54:53.565Z,7.90
2018-12-02T11:55:53.548Z,1.10
2018-12-02T11:56:53.475Z,1.20
2018-12-02T11:57:53.453Z,1.20
2018-12-02T11:58:53.403Z,1.40
2018-12-02T11:59:53.369Z,1.50
2018-12-02T12:00:53.322Z,1.30
2018-12-02T12:01:53.293Z,1.40
2018-12-02T12:02:53.242Z,1.30
2018-12-02T12:03:53.212Z,1.40
2018-12-02T12:04:53.172Z,1.10
2018-12-02T12:05:53.135Z,1.20
2018-12-02T12:06:53.110Z,1.10
2018-12-02T12:07:53.051Z,1.30
2018-12-02T12:08:53.028Z,1.80
2018-12-02T12:09:52.975Z,2.30
2018-12-02T12:10:52.953Z,1.20
2018-12-02T12:11:52.894Z,1.20
2018-12-02T12:12:52.868Z,1.20
2018-12-02T12:13:52.841Z,1.30
2018-12-02T12:14:52.766Z,1.10
2018-12-02T12:15:52.769Z,1.40
2018-12-02T12:16:52.695Z,1.30
2018-12-02T12:17:52.668Z,1.00
2018-12-02T12:18:52.622Z,2.30
2018-12-02T12:19:52.580Z,2.50
2018-12-02T12:20:52.551Z,1.30
2018-12-02T12:21:52.503Z,8.90
2018-12-02T12:22:52.478Z,4.90
2018-12-02T12:23:52.410Z,1.40
2018-12-02T12:24:52.382Z,1.70
2018-12-02T12:25:52.333Z,1.30
2018-12-02T12:26:52.304Z,2.00
2018-12-02T12:27:52.257Z,3.50
2018-12-02T12:28:52.224Z,1.50
2018-12-02T12:29:52.185Z,1.40
2018-12-02T12:30:52.147Z,1.40
2018-12-02T12:31:52.097Z,1.50
2018-12-02T12:32:52.073Z,1.30
2018-12-02T12:33:52.028Z,1.50
2018-12-02T12:34:51.984Z,1.50
2018-12-02T12:35:51.941Z,8.50
2018-12-02T12:36:51.895Z,1.80
2018-12-02T12:37:51.900Z,1.40
2018-12-02T12:38:51.824Z,2.80
2018-12-02T12:39:51.787Z,2.40
2018-12-02T12:40:51.757Z,2.10
2018-12-02T12:41:51.705Z,2.30
2018-12-02T12:42:51.677Z,1.80
2018-12-02T12:43:51.638Z,1.40
2018-12-02T12:44:51.597Z,1.70
2018-12-02T12:45:51.552Z,1.50
2018-12-02T12:46:51.503Z,1.30
2018-12-02T12:47:51.479Z,1.40
2018-12-02T12:48:51.434Z,2.70
2018-12-02T12:49:51.397Z,1.10
2018-12-02T12:50:51.351Z,0.90
2018-12-02T12:51:51.329Z,0.90
2018-12-02T12:52:51.262Z,0.90
2018-12-02T12:53:51.228Z,0.80
2018-12-02T12:54:51.189Z,1.10
2018-12-02T12:55:51.306Z,0.90
2018-12-02T12:56:51.116Z,0.70
2018-12-02T12:57:51.065Z,0.70
2018-12-02T12:58:51.041Z,1.50
2018-12-02T12:59:51.003Z,1.10
2018-12-02T13:00:50.951Z,1.70
2018-12-02T13:01:50.952Z,5.80
2018-12-02T13:02:50.868Z,3.80
2018-12-02T13:03:50.865Z,1.30
2018-12-02T13:04:50.792Z,1.00
2018-12-02T13:05:50.774Z,0.90